Anapa Vityazevo International Airport

URKA · Krasnodarskiy, Rússia

História da METAR URKA · Anapa Vityazevo International Airport

Abaixo você vê METARs dos últimos dias. Selecione um ano para navegar pelos METARs mais antigos, a partir do ano 2007.

25 de junho de 2024

Hora Código Clima Temp. Visibilidade Tecto Vento METAR/SPECI
16:30
V
26 °C 10 km+ - 350° 350° 9 kt METAR URKA 251330Z 35005MPS 310V020 9999 SCT/// 26/16 Q1010 R03/010070 NOSIG RMK QFE754/1005
16:00
V
26 °C 10 km+ - 340° 340° 11 kt METAR URKA 251300Z 34006MPS 310V010 9999 SCT046 26/15 Q1010 R03/010070 NOSIG RMK QFE754/1005
15:30
V
27 °C 10 km+ - 330° 330° 11 kt METAR URKA 251230Z 33006MPS 290V360 9999 SCT047 27/16 Q1010 R03/010070 NOSIG RMK QFE754/1005
15:00
V
27 °C 10 km+ - 310° 310° 13 kt METAR URKA 251200Z 31007MPS 9999 SCT044 27/16 Q1010 R03/010070 NOSIG RMK QFE754/1005
14:30
V
27 °C 10 km+ - 320° 320° 13 kt METAR URKA 251130Z 32007MPS 290V350 9999 SCT042 27/16 Q1010 R03/010070 NOSIG RMK QFE754/1005
14:00
V
27 °C 10 km+ - 320° 320° 13 kt METAR URKA 251100Z 32007MPS 9999 SCT/// 27/16 Q1010 R03/010070 NOSIG RMK QFE754/1005
13:30
V
27 °C 10 km+ - 320° 320° 13 kt METAR URKA 251030Z 32007MPS 290V010 9999 SCT041 27/18 Q1010 R03/010070 NOSIG RMK QFE754/1005
13:00
V
27 °C 10 km+ - 330° 330° 13 kt METAR URKA 251000Z 33007MPS 9999 SCT/// 27/18 Q1010 R03/010070 NOSIG RMK QFE754/1005
12:30
V
28 °C 10 km+ - 320° 320° 13 kt METAR URKA 250930Z 32007MPS 9999 SCT/// 28/18 Q1010 R03/010070 NOSIG RMK QFE754/1005
12:00
V
28 °C 10 km+ - 310° 310° 15 kt METAR URKA 250900Z 31008MPS 9999 SCT/// 28/19 Q1010 R03/010070 NOSIG RMK QFE754/1005
11:30
V
28 °C 10 km+ - 300° 300° 13 kt METAR URKA 250830Z 30007MPS 9999 SCT043 28/20 Q1010 R03/010070 NOSIG RMK QFE753/1005
11:00
V
28 °C 10 km+ - 290° 290° 9 kt METAR URKA 250800Z 29005MPS 260V320 9999 SCT046 28/18 Q1010 R03/010070 NOSIG RMK QFE754/1005
10:30
V
28 °C 10 km+ - 310° 310° 7 kt METAR URKA 250730Z 31004MPS 260V040 9999 SCT/// 28/18 Q1010 R03/010070 NOSIG RMK QFE754/1005
10:00
V
28 °C 10 km+ - 320° 320° 7 kt METAR URKA 250700Z 32004MPS 280V350 9999 SCT/// 28/18 Q1010 R03/010070 NOSIG RMK QFE754/1005
09:30
V
27 °C 10 km+ - 320° 320° 7 kt METAR URKA 250630Z 32004MPS 280V350 9999 SCT/// 27/18 Q1010 R03/010070 NOSIG RMK QFE754/1005
09:00
V
26 °C 10 km+ - 330° 330° 7 kt METAR URKA 250600Z 33004MPS 290V360 9999 SCT/// 26/18 Q1010 R03/010070 NOSIG RMK QFE753/1005
08:30
V
26 °C 10 km+ - 360° 360° 5 kt METAR URKA 250530Z 36003MPS 310V060 9999 SCT034 26/18 Q1010 R03/010070 NOSIG RMK QFE754/1005
00:00
V
18 °C 9 km - 140° 140° 1 kt METAR URKA 242100Z 14001MPS 9000 NSC 18/18 Q1009 R21/010070 TEMPO 0500 FG SCT002 RMK QFE752/1003

24 de junho de 2024

Hora Código Clima Temp. Visibilidade Tecto Vento METAR/SPECI
23:30
V
19 °C 9 km - 130° 130° 1 kt METAR URKA 242030Z 13001MPS 9000 NSC 19/17 Q1009 R21/010070 TEMPO 1000 BR RMK QFE752/1003
23:00
V
19 °C 9 km - 080° 080° 1 kt METAR URKA 242000Z 08001MPS 9000 NSC 19/18 Q1009 R21/010070 TEMPO 1000 BR RMK QFE752/1003
22:30
V
19 °C 8 km - 060° 060° 1 kt METAR URKA 241930Z 06001MPS 8000 NSC 19/19 Q1009 R21/010070 TEMPO 1000 BR RMK QFE752/1003
22:00
V
20 °C 8 km - 160° 160° 1 kt METAR URKA 241900Z 16001MPS 8000 NSC 20/19 Q1009 R21/010070 TEMPO 1000 BR RMK QFE752/1003
21:30
V
20 °C 10 km+ - 130° 130° 1 kt METAR URKA 241830Z 13001MPS CAVOK 20/19 Q1009 R21/010070 TEMPO 3000 BR RMK QFE752/1003
21:00
V
21 °C 10 km+ - 170° 170° 3 kt METAR URKA 241800Z 17002MPS CAVOK 21/21 Q1009 R21/010070 NOSIG RMK QFE752/1003
20:30
V
22 °C 10 km+ - 190° 190° 3 kt METAR URKA 241730Z 19002MPS CAVOK 22/22 Q1009 R21/010070 NOSIG RMK QFE752/1002
20:00
V
24 °C 10 km+ - 210° 210° 3 kt METAR URKA 241700Z 21002MPS CAVOK 24/22 Q1009 R21/010070 NOSIG RMK QFE752/1002
19:30
V
26 °C 10 km+ - 270° 270° 3 kt METAR URKA 241630Z 27002MPS CAVOK 26/22 Q1009 R21/010070 NOSIG RMK QFE752/1002
19:00
V
27 °C 10 km+ - 290° 290° 5 kt METAR URKA 241600Z 29003MPS CAVOK 27/21 Q1009 R21/010070 NOSIG RMK QFE752/1002
18:30
V
28 °C 10 km+ - 300° 300° 5 kt METAR URKA 241530Z 30003MPS 280V340 CAVOK 28/20 Q1009 R21/010070 NOSIG RMK QFE752/1002
18:00
V
29 °C 10 km+ - 290° 290° 5 kt METAR URKA 241500Z 29003MPS 260V330 CAVOK 29/18 Q1009 R21/010070 NOSIG RMK QFE752/1002
17:30
V
29 °C 10 km+ - 280° 280° 5 kt METAR URKA 241430Z 28003MPS 240V330 CAVOK 29/17 Q1009 R21/010070 NOSIG RMK QFE752/1002
17:00
V
29 °C 10 km+ - 300° 300° 5 kt METAR URKA 241400Z 30003MPS 270V010 CAVOK 29/18 Q1009 R21/010070 NOSIG RMK QFE752/1003
16:30
V
29 °C 10 km+ - 260° 260° 7 kt METAR URKA 241330Z 26004MPS 230V300 CAVOK 29/19 Q1009 R21/010070 NOSIG RMK QFE752/1003
16:00
V
28 °C 10 km+ - 250° 250° 7 kt METAR URKA 241300Z 25004MPS CAVOK 28/19 Q1009 R21/010070 NOSIG RMK QFE752/1003
15:30
V
28 °C 10 km+ - 240° 240° 7 kt METAR URKA 241230Z 24004MPS CAVOK 28/18 Q1010 R21/010070 NOSIG RMK QFE752/1003
15:00
V
28 °C 10 km+ - 250° 250° 9 kt METAR URKA 241200Z 25005MPS CAVOK 28/18 Q1010 R21/010070 NOSIG RMK QFE752/1003
14:30
V
28 °C 10 km+ - 240° 240° 9 kt METAR URKA 241130Z 24005MPS 210V270 CAVOK 28/19 Q1010 R21/010070 NOSIG RMK QFE752/1003
14:00
V
28 °C 10 km+ - 240° 240° 9 kt METAR URKA 241100Z 24005MPS 220V280 CAVOK 28/20 Q1010 R21/010070 NOSIG RMK QFE752/1003
13:30
V
28 °C 10 km+ - 240° 240° 9 kt METAR URKA 241030Z 24005MPS CAVOK 28/19 Q1010 R21/010070 NOSIG RMK QFE752/1003
13:00
V
28 °C 10 km+ - 240° 240° 9 kt METAR URKA 241000Z 24005MPS CAVOK 28/18 Q1010 R21/010070 NOSIG RMK QFE752/1003
12:30
V
28 °C 10 km+ - 230° 230° 9 kt METAR URKA 240930Z 23005MPS CAVOK 28/18 Q1010 R21/010070 NOSIG RMK QFE752/1003
12:00
V
28 °C 10 km+ - 240° 240° 9 kt METAR URKA 240900Z 24005MPS CAVOK 28/20 Q1010 R21/010070 NOSIG RMK QFE753/1004
11:30
V
28 °C 10 km+ - 240° 240° 9 kt METAR URKA 240830Z 24005MPS CAVOK 28/20 Q1010 R21/010070 NOSIG RMK QFE753/1004
11:00
V
28 °C 10 km+ - 250° 250° 7 kt METAR URKA 240800Z 25004MPS CAVOK 28/18 Q1010 R21/010070 NOSIG RMK QFE752/1003
10:30
V
28 °C 10 km+ - 250° 250° 9 kt METAR URKA 240730Z 25005MPS CAVOK 28/18 Q1010 R21/010070 NOSIG RMK QFE752/1003
10:00
V
29 °C 10 km+ - 250° 250° 3 kt METAR URKA 240700Z 25002MPS 180V320 CAVOK 29/18 Q1010 R21/010070 NOSIG RMK QFE752/1003
09:30
V
29 °C 10 km+ - 170° 170° 3 kt METAR URKA 240630Z 17002MPS 050V220 CAVOK 29/15 Q1010 R21/010070 NOSIG RMK QFE752/1003
09:00
V
28 °C 10 km+ - Var Var 1 kt METAR URKA 240600Z VRB01MPS CAVOK 28/17 Q1010 R21/010070 NOSIG RMK QFE752/1003
08:30
V
28 °C 10 km+ - Var Var 1 kt METAR URKA 240530Z VRB01MPS CAVOK 28/17 Q1010 R21/010070 NOSIG RMK QFE752/1003
08:00
V
27 °C 10 km+ - Var Var 1 kt METAR URKA 240500Z VRB01MPS CAVOK 27/18 Q1010 R03/010070 NOSIG RMK QFE753/1005
07:30
V
25 °C 10 km+ - 160° 160° 3 kt METAR URKA 240430Z 16002MPS 130V190 CAVOK 25/17 Q1010 R03/010070 NOSIG RMK QFE753/1005
07:00
V
23 °C 10 km+ - 160° 160° 3 kt METAR URKA 240400Z 16002MPS CAVOK 23/19 Q1010 R03/010070 NOSIG RMK QFE753/1005
06:30
V
21 °C 10 km+ - 130° 130° 3 kt METAR URKA 240330Z 13002MPS CAVOK 21/19 Q1010 R03/010070 NOSIG RMK QFE753/1005
06:00
V
19 °C 10 km+ - 140° 140° 3 kt METAR URKA 240300Z 14002MPS CAVOK 19/18 Q1010 R03/010070 NOSIG RMK QFE754/1005
05:30
V
17 °C 10 km+ - 140° 140° 5 kt METAR URKA 240230Z 14003MPS CAVOK 17/17 Q1010 R03/010070 NOSIG RMK QFE754/1005
05:00
V
16 °C 10 km+ - 130° 130° 5 kt METAR URKA 240200Z 13003MPS CAVOK 16/16 Q1010 R03/010070 NOSIG RMK QFE754/1005
04:30
V
16 °C 10 km+ - 140° 140° 5 kt METAR URKA 240130Z 14003MPS CAVOK 16/16 Q1010 R03/010070 NOSIG RMK QFE754/1005
04:00
V
16 °C 10 km+ - 130° 130° 5 kt METAR URKA 240100Z 13003MPS CAVOK 16/16 Q1010 R03/010070 NOSIG RMK QFE754/1005
03:30
V
16 °C 10 km+ - 140° 140° 5 kt METAR URKA 240030Z 14003MPS 9999 FEW/// 16/16 Q1010 R03/010070 NOSIG RMK QFE754/1005
03:00
V
16 °C 10 km+ - 140° 140° 3 kt METAR URKA 240000Z 14002MPS 9999 FEW039 16/16 Q1010 R03/010070 NOSIG RMK QFE754/1005
02:30
V
16 °C 10 km+ - 140° 140° 5 kt METAR URKA 232330Z 14003MPS CAVOK 16/16 Q1010 R03/010070 NOSIG RMK QFE754/1005
02:00
V
16 °C 10 km+ - 140° 140° 5 kt METAR URKA 232300Z 14003MPS CAVOK 16/16 Q1010 R03/010070 NOSIG RMK QFE754/1005
01:30
V
16 °C 10 km+ - 140° 140° 5 kt METAR URKA 232230Z 14003MPS CAVOK 16/16 Q1010 R03/010070 NOSIG RMK QFE754/1005
01:00
V
16 °C 10 km+ - 150° 150° 3 kt METAR URKA 232200Z 15002MPS CAVOK 16/16 Q1010 R03/010070 NOSIG RMK QFE754/1005
00:30
V
16 °C 10 km+ - 150° 150° 3 kt METAR URKA 232130Z 15002MPS CAVOK 16/16 Q1010 R03/010070 NOSIG RMK QFE754/1005
00:00
V
16 °C 10 km+ - 140° 140° 5 kt METAR URKA 232100Z 14003MPS CAVOK 16/16 Q1010 R03/010070 NOSIG RMK QFE754/1005

23 de junho de 2024

Hora Código Clima Temp. Visibilidade Tecto Vento METAR/SPECI
23:30
V
16 °C 10 km+ - 150° 150° 3 kt METAR URKA 232030Z 15002MPS CAVOK 16/16 Q1010 R03/010070 NOSIG RMK QFE754/1005
23:00
V
17 °C 10 km+ - 150° 150° 3 kt METAR URKA 232000Z 15002MPS CAVOK 17/16 Q1010 R03/010070 NOSIG RMK QFE754/1005
22:30
V
17 °C 10 km+ - 150° 150° 3 kt METAR URKA 231930Z 15002MPS CAVOK 17/16 Q1011 R03/010070 NOSIG RMK QFE754/1005
22:00
V
18 °C 10 km+ - 180° 180° 3 kt METAR URKA 231900Z 18002MPS 140V200 CAVOK 18/16 Q1011 R21/010070 NOSIG RMK QFE753/1004
21:30
V
18 °C 10 km+ - 170° 170° 3 kt METAR URKA 231830Z 17002MPS CAVOK 18/17 Q1011 R21/010070 NOSIG RMK QFE753/1004
21:00
V
20 °C 10 km+ - 200° 200° 3 kt METAR URKA 231800Z 20002MPS CAVOK 20/18 Q1011 R21/010070 NOSIG RMK QFE753/1004
20:30
V
21 °C 10 km+ - Var Var 1 kt METAR URKA 231730Z VRB01MPS CAVOK 21/18 Q1011 R21/010070 NOSIG RMK QFE753/1004
20:00
V
22 °C 10 km+ - 280° 280° 3 kt METAR URKA 231700Z 28002MPS CAVOK 22/18 Q1011 R21/010070 NOSIG RMK QFE753/1004
19:30
V
24 °C 10 km+ - 290° 290° 5 kt METAR URKA 231630Z 29003MPS CAVOK 24/18 Q1011 R21/010070 NOSIG RMK QFE753/1004
19:00
V
25 °C 10 km+ - 290° 290° 7 kt METAR URKA 231600Z 29004MPS CAVOK 25/18 Q1010 R21/010070 NOSIG RMK QFE753/1004
18:30
V
25 °C 10 km+ - 260° 260° 5 kt METAR URKA 231530Z 26003MPS CAVOK 25/17 Q1010 R21/010070 NOSIG RMK QFE753/1004
18:00
V
26 °C 10 km+ - 290° 290° 7 kt METAR URKA 231500Z 29004MPS 260V320 CAVOK 26/17 Q1010 R21/010070 NOSIG RMK QFE753/1004
17:30
V
27 °C 10 km+ - 250° 250° 7 kt METAR URKA 231430Z 25004MPS 230V300 CAVOK 27/18 Q1010 R21/010070 NOSIG RMK QFE753/1004
17:00
V
27 °C 10 km+ - 230° 230° 7 kt METAR URKA 231400Z 23004MPS 200V260 CAVOK 27/17 Q1010 WS R21 R21/010070 NOSIG RMK QFE753/1004
16:30
V
27 °C 10 km+ - 250° 250° 7 kt METAR URKA 231330Z 25004MPS 220V280 CAVOK 27/17 Q1011 WS R21 R21/010070 NOSIG RMK QFE753/1004
16:00
V
27 °C 10 km+ - 260° 260° 7 kt METAR URKA 231300Z 26004MPS 230V290 CAVOK 27/16 Q1011 R21/010070 NOSIG RMK QFE753/1004
15:30
V
27 °C 10 km+ - 250° 250° 7 kt METAR URKA 231230Z 25004MPS CAVOK 27/16 Q1011 R21/010070 NOSIG RMK QFE753/1004
15:00
V
27 °C 10 km+ - 250° 250° 9 kt METAR URKA 231200Z 25005MPS CAVOK 27/16 Q1011 R21/010070 NOSIG RMK QFE753/1004
14:30
V
27 °C 10 km+ - 250° 250° 9 kt METAR URKA 231130Z 25005MPS 220V290 9999 FEW/// 27/15 Q1011 R21/010070 NOSIG RMK QFE753/1005
14:00
V
28 °C 10 km+ - 260° 260° 7 kt METAR URKA 231100Z 26004MPS 220V280 9999 FEW/// 28/15 Q1011 R21/010070 NOSIG RMK QFE753/1005
13:30
V
28 °C 10 km+ - 250° 250° 9 kt METAR URKA 231030Z 25005MPS CAVOK 28/15 Q1011 R21/010070 NOSIG RMK QFE753/1005
13:00
V
28 °C 10 km+ - 260° 260° 9 kt METAR URKA 231000Z 26005MPS 230V290 CAVOK 28/15 Q1011 R21/010070 NOSIG RMK QFE754/1005
12:30
V
28 °C 10 km+ - 270° 270° 7 kt METAR URKA 230930Z 27004MPS 230V310 CAVOK 28/15 Q1012 R21/010070 NOSIG RMK QFE754/1005
12:00
V
28 °C 10 km+ - 270° 270° 7 kt METAR URKA 230900Z 27004MPS CAVOK 28/15 Q1012 R21/010070 NOSIG RMK QFE754/1005
11:30
V
27 °C 10 km+ - 260° 260° 7 kt METAR URKA 230830Z 26004MPS 220V290 CAVOK 27/15 Q1012 R21/010070 NOSIG RMK QFE754/1005
11:00
V
27 °C 10 km+ - 250° 250° 7 kt METAR URKA 230800Z 25004MPS 220V300 CAVOK 27/15 Q1012 R21/010070 NOSIG RMK QFE754/1005
10:30
V
27 °C 10 km+ - 230° 230° 5 kt METAR URKA 230730Z 23003MPS 180V270 CAVOK 27/15 Q1012 R21/010070 NOSIG RMK QFE754/1005
10:00
V
27 °C 10 km+ - 210° 210° 5 kt METAR URKA 230700Z 21003MPS 120V270 CAVOK 27/14 Q1012 R21/010070 NOSIG RMK QFE754/1005
09:30
V
26 °C 10 km+ - 210° 210° 3 kt METAR URKA 230630Z 21002MPS 190V280 CAVOK 26/14 Q1012 R03/010070 NOSIG RMK QFE755/1007
09:00
V
26 °C 10 km+ - Var Var 1 kt METAR URKA 230600Z VRB01MPS CAVOK 26/14 Q1012 R03/010070 NOSIG RMK QFE755/1007
Relatar uma mudança